sensor_id;sensor_type;location;lat;lon;timestamp;pressure;altitude;pressure_sealevel;temperature;humidity
34506;BME280;20748;42.632;23.198;2023-03-31T00:00:40;92004.44;;;9.02;49.91
34506;BME280;20748;42.632;23.198;2023-03-31T00:03:13;91999.34;;;9.11;48.62
34506;BME280;20748;42.632;23.198;2023-03-31T00:05:56;92009.16;;;9.14;48.98
34506;BME280;20748;42.632;23.198;2023-03-31T00:08:30;92005.22;;;9.17;47.55
34506;BME280;20748;42.632;23.198;2023-03-31T00:11:06;91997.59;;;9.20;47.62
34506;BME280;20748;42.632;23.198;2023-03-31T00:13:39;92004.06;;;9.23;48.09
34506;BME280;20748;42.632;23.198;2023-03-31T00:16:11;91995.19;;;9.24;47.22
34506;BME280;20748;42.632;23.198;2023-03-31T00:18:44;91992.19;;;9.31;47.05
34506;BME280;20748;42.632;23.198;2023-03-31T00:21:19;91991.13;;;9.32;47.23
34506;BME280;20748;42.632;23.198;2023-03-31T00:23:58;91992.66;;;9.33;45.37
34506;BME280;20748;42.632;23.198;2023-03-31T00:26:32;91989.88;;;9.43;45.95
34506;BME280;20748;42.632;23.198;2023-03-31T00:29:06;91989.59;;;9.45;46.18
34506;BME280;20748;42.632;23.198;2023-03-31T00:31:39;91996.53;;;9.49;46.12
34506;BME280;20748;42.632;23.198;2023-03-31T00:34:12;91985.44;;;9.58;45.14
34506;BME280;20748;42.632;23.198;2023-03-31T00:36:44;91975.78;;;9.58;44.93
34506;BME280;20748;42.632;23.198;2023-03-31T00:39:18;91975.22;;;9.61;45.43
34506;BME280;20748;42.632;23.198;2023-03-31T00:41:50;91978.19;;;9.69;45.02
34506;BME280;20748;42.632;23.198;2023-03-31T00:44:24;91971.34;;;9.73;45.25
34506;BME280;20748;42.632;23.198;2023-03-31T00:47:00;91965.16;;;9.69;45.43
34506;BME280;20748;42.632;23.198;2023-03-31T00:49:37;91963.19;;;9.74;44.82
34506;BME280;20748;42.632;23.198;2023-03-31T00:52:15;91956.94;;;9.75;45.38
34506;BME280;20748;42.632;23.198;2023-03-31T00:54:55;91954.72;;;9.83;45.66
34506;BME280;20748;42.632;23.198;2023-03-31T00:57:32;91960.84;;;9.87;46.14
34506;BME280;20748;42.632;23.198;2023-03-31T01:00:12;91956.72;;;9.86;45.44
34506;BME280;20748;42.632;23.198;2023-03-31T01:02:48;91956.03;;;9.94;44.04
34506;BME280;20748;42.632;23.198;2023-03-31T01:05:27;91958.38;;;10.04;44.24
34506;BME280;20748;42.632;23.198;2023-03-31T01:08:00;91952.13;;;10.05;44.38
34506;BME280;20748;42.632;23.198;2023-03-31T01:10:36;91952.94;;;10.15;44.08
34506;BME280;20748;42.632;23.198;2023-03-31T01:13:14;91952.47;;;10.13;43.70
34506;BME280;20748;42.632;23.198;2023-03-31T01:15:47;91944.00;;;10.07;43.55
34506;BME280;20748;42.632;23.198;2023-03-31T01:18:20;91949.13;;;9.98;44.04
34506;BME280;20748;42.632;23.198;2023-03-31T01:24:18;91948.34;;;10.12;45.10
34506;BME280;20748;42.632;23.198;2023-03-31T01:27:10;91952.66;;;10.16;44.83
34506;BME280;20748;42.632;23.198;2023-03-31T01:33:14;91955.34;;;10.25;44.48
34506;BME280;20748;42.632;23.198;2023-03-31T01:36:27;91962.91;;;10.13;44.19
34506;BME280;20748;42.632;23.198;2023-03-31T01:42:24;91964.16;;;10.15;44.73
34506;BME280;20748;42.632;23.198;2023-03-31T01:45:09;91971.19;;;10.15;45.34
34506;BME280;20748;42.632;23.198;2023-03-31T01:47:51;91968.59;;;10.15;45.13
34506;BME280;20748;42.632;23.198;2023-03-31T01:50:32;91960.47;;;10.16;46.05
34506;BME280;20748;42.632;23.198;2023-03-31T01:53:13;91967.88;;;10.00;45.93
34506;BME280;20748;42.632;23.198;2023-03-31T01:55:50;91964.09;;;10.06;45.55
34506;BME280;20748;42.632;23.198;2023-03-31T01:58:32;91978.56;;;10.13;45.36
34506;BME280;20748;42.632;23.198;2023-03-31T02:01:12;91986.16;;;10.23;45.21
34506;BME280;20748;42.632;23.198;2023-03-31T02:03:51;91985.91;;;10.11;44.83
34506;BME280;20748;42.632;23.198;2023-03-31T02:06:26;91996.19;;;10.16;44.98
34506;BME280;20748;42.632;23.198;2023-03-31T02:09:02;91995.78;;;10.00;44.64
34506;BME280;20748;42.632;23.198;2023-03-31T02:11:38;92003.59;;;10.00;45.18
34506;BME280;20748;42.632;23.198;2023-03-31T02:14:17;92008.34;;;9.98;46.52
34506;BME280;20748;42.632;23.198;2023-03-31T02:16:56;92014.78;;;10.00;47.13
34506;BME280;20748;42.632;23.198;2023-03-31T02:19:32;92021.03;;;9.76;49.94
34506;BME280;20748;42.632;23.198;2023-03-31T02:22:07;92028.94;;;9.71;52.38
34506;BME280;20748;42.632;23.198;2023-03-31T02:24:42;92024.00;;;9.70;53.06
34506;BME280;20748;42.632;23.198;2023-03-31T02:27:19;92032.59;;;9.42;56.34
34506;BME280;20748;42.632;23.198;2023-03-31T02:29:54;92034.19;;;8.82;61.95
34506;BME280;20748;42.632;23.198;2023-03-31T02:32:30;92033.06;;;8.69;63.72
34506;BME280;20748;42.632;23.198;2023-03-31T02:35:05;92031.06;;;8.80;65.61
34506;BME280;20748;42.632;23.198;2023-03-31T02:37:39;92033.84;;;8.50;70.03
34506;BME280;20748;42.632;23.198;2023-03-31T02:40:16;92032.94;;;8.41;72.94
34506;BME280;20748;42.632;23.198;2023-03-31T02:42:50;92031.81;;;8.47;71.82
34506;BME280;20748;42.632;23.198;2023-03-31T02:45:39;92021.41;;;8.47;72.99
34506;BME280;20748;42.632;23.198;2023-03-31T02:48:16;92025.56;;;8.67;73.67
34506;BME280;20748;42.632;23.198;2023-03-31T02:54:00;92003.88;;;8.58;76.35
34506;BME280;20748;42.632;23.198;2023-03-31T02:57:09;91998.09;;;8.61;77.24
34506;BME280;20748;42.632;23.198;2023-03-31T02:59:53;91989.66;;;8.50;79.08
34506;BME280;20748;42.632;23.198;2023-03-31T03:02:38;91986.00;;;8.51;78.90
34506;BME280;20748;42.632;23.198;2023-03-31T03:05:22;91979.47;;;8.35;79.09
34506;BME280;20748;42.632;23.198;2023-03-31T03:08:21;91970.41;;;8.32;78.83
34506;BME280;20748;42.632;23.198;2023-03-31T03:11:03;91961.56;;;8.33;79.00
34506;BME280;20748;42.632;23.198;2023-03-31T03:13:44;91959.38;;;8.40;80.93
34506;BME280;20748;42.632;23.198;2023-03-31T03:16:20;91940.88;;;8.28;81.71
34506;BME280;20748;42.632;23.198;2023-03-31T03:18:56;91934.22;;;8.22;78.58
34506;BME280;20748;42.632;23.198;2023-03-31T03:21:30;91939.81;;;8.29;78.96
34506;BME280;20748;42.632;23.198;2023-03-31T03:24:02;91950.28;;;8.24;78.74
34506;BME280;20748;42.632;23.198;2023-03-31T03:26:35;91954.16;;;8.26;78.35
34506;BME280;20748;42.632;23.198;2023-03-31T03:29:07;91954.06;;;8.31;78.41
34506;BME280;20748;42.632;23.198;2023-03-31T03:31:40;91953.38;;;8.26;77.88
34506;BME280;20748;42.632;23.198;2023-03-31T03:34:13;91950.75;;;8.26;75.95
34506;BME280;20748;42.632;23.198;2023-03-31T03:36:47;91949.81;;;8.22;75.36
34506;BME280;20748;42.632;23.198;2023-03-31T03:39:19;91939.56;;;8.11;75.42
34506;BME280;20748;42.632;23.198;2023-03-31T03:41:52;91937.31;;;8.04;77.33
34506;BME280;20748;42.632;23.198;2023-03-31T03:44:24;91930.97;;;8.11;76.77
34506;BME280;20748;42.632;23.198;2023-03-31T03:46:57;91932.13;;;8.04;77.17
34506;BME280;20748;42.632;23.198;2023-03-31T03:49:30;91929.09;;;8.16;77.09
34506;BME280;20748;42.632;23.198;2023-03-31T03:52:02;91932.59;;;8.06;76.02
34506;BME280;20748;42.632;23.198;2023-03-31T03:54:35;91929.66;;;7.94;73.79
34506;BME280;20748;42.632;23.198;2023-03-31T03:57:07;91934.50;;;8.01;74.26
34506;BME280;20748;42.632;23.198;2023-03-31T03:59:39;91938.38;;;8.03;74.53
34506;BME280;20748;42.632;23.198;2023-03-31T04:02:12;91944.69;;;7.97;74.46
34506;BME280;20748;42.632;23.198;2023-03-31T04:04:45;91948.78;;;8.03;75.38
34506;BME280;20748;42.632;23.198;2023-03-31T04:07:18;91949.84;;;7.83;76.13
34506;BME280;20748;42.632;23.198;2023-03-31T04:09:51;91950.41;;;7.80;77.63
34506;BME280;20748;42.632;23.198;2023-03-31T04:12:23;91964.44;;;7.79;76.92
34506;BME280;20748;42.632;23.198;2023-03-31T04:14:55;91959.72;;;7.62;77.86
34506;BME280;20748;42.632;23.198;2023-03-31T04:17:28;91957.53;;;7.50;77.90
34506;BME280;20748;42.632;23.198;2023-03-31T04:20:06;91959.31;;;7.55;77.59
34506;BME280;20748;42.632;23.198;2023-03-31T04:22:40;91957.25;;;7.51;77.98
34506;BME280;20748;42.632;23.198;2023-03-31T04:25:13;91957.03;;;7.48;77.17
34506;BME280;20748;42.632;23.198;2023-03-31T04:27:48;91960.38;;;7.54;78.16
34506;BME280;20748;42.632;23.198;2023-03-31T04:30:23;91967.19;;;7.25;78.08
34506;BME280;20748;42.632;23.198;2023-03-31T04:32:57;91966.94;;;7.46;77.54
34506;BME280;20748;42.632;23.198;2023-03-31T04:35:30;91958.59;;;7.49;78.15
34506;BME280;20748;42.632;23.198;2023-03-31T04:38:21;91958.31;;;7.50;77.09
34506;BME280;20748;42.632;23.198;2023-03-31T04:40:53;91955.19;;;7.54;76.77
34506;BME280;20748;42.632;23.198;2023-03-31T04:43:27;91961.84;;;7.60;75.84
34506;BME280;20748;42.632;23.198;2023-03-31T04:45:59;91963.81;;;7.68;75.06
34506;BME280;20748;42.632;23.198;2023-03-31T04:48:31;91962.06;;;7.63;74.57
34506;BME280;20748;42.632;23.198;2023-03-31T04:51:05;91970.47;;;7.74;74.02
34506;BME280;20748;42.632;23.198;2023-03-31T04:53:37;91969.47;;;7.70;73.54
34506;BME280;20748;42.632;23.198;2023-03-31T04:56:09;91959.09;;;7.70;74.59
34506;BME280;20748;42.632;23.198;2023-03-31T04:58:42;91960.28;;;7.59;74.32
34506;BME280;20748;42.632;23.198;2023-03-31T05:01:15;91932.28;;;7.56;76.65
34506;BME280;20748;42.632;23.198;2023-03-31T05:03:48;91943.66;;;7.60;75.70
34506;BME280;20748;42.632;23.198;2023-03-31T05:06:22;91939.88;;;7.71;74.87
34506;BME280;20748;42.632;23.198;2023-03-31T05:08:54;91937.19;;;7.76;74.29
34506;BME280;20748;42.632;23.198;2023-03-31T05:11:26;91934.72;;;7.85;72.71
34506;BME280;20748;42.632;23.198;2023-03-31T05:13:59;91935.72;;;7.89;71.53
34506;BME280;20748;42.632;23.198;2023-03-31T05:16:32;91931.66;;;7.83;69.18
34506;BME280;20748;42.632;23.198;2023-03-31T05:19:04;91923.91;;;7.97;69.04
34506;BME280;20748;42.632;23.198;2023-03-31T05:21:37;91929.53;;;8.04;68.36
34506;BME280;20748;42.632;23.198;2023-03-31T05:24:10;91922.91;;;8.12;67.23
34506;BME280;20748;42.632;23.198;2023-03-31T05:26:42;91924.56;;;8.22;65.53
34506;BME280;20748;42.632;23.198;2023-03-31T05:29:19;91921.81;;;8.32;64.98
34506;BME280;20748;42.632;23.198;2023-03-31T05:31:51;91912.19;;;8.47;64.86
34506;BME280;20748;42.632;23.198;2023-03-31T05:34:39;91915.53;;;8.53;63.46
34506;BME280;20748;42.632;23.198;2023-03-31T05:37:14;91914.47;;;8.54;63.04
34506;BME280;20748;42.632;23.198;2023-03-31T05:39:46;91915.38;;;8.63;62.48
34506;BME280;20748;42.632;23.198;2023-03-31T05:42:19;91921.63;;;8.76;62.53
34506;BME280;20748;42.632;23.198;2023-03-31T05:44:51;91919.44;;;8.83;62.62
34506;BME280;20748;42.632;23.198;2023-03-31T05:47:24;91925.69;;;8.96;61.70
34506;BME280;20748;42.632;23.198;2023-03-31T05:49:56;91926.06;;;9.04;61.43
34506;BME280;20748;42.632;23.198;2023-03-31T05:52:30;91922.09;;;9.20;62.09
34506;BME280;20748;42.632;23.198;2023-03-31T05:55:04;91922.47;;;9.42;60.09
34506;BME280;20748;42.632;23.198;2023-03-31T05:57:36;91933.09;;;9.17;59.86
34506;BME280;20748;42.632;23.198;2023-03-31T06:00:10;91934.16;;;9.02;59.72
34506;BME280;20748;42.632;23.198;2023-03-31T06:02:42;91938.59;;;9.16;59.91
34506;BME280;20748;42.632;23.198;2023-03-31T06:05:14;91939.94;;;9.13;60.32
34506;BME280;20748;42.632;23.198;2023-03-31T06:07:47;91940.91;;;9.03;59.21
34506;BME280;20748;42.632;23.198;2023-03-31T06:10:20;91941.38;;;9.05;61.03
34506;BME280;20748;42.632;23.198;2023-03-31T06:12:52;91943.41;;;8.94;60.05
34506;BME280;20748;42.632;23.198;2023-03-31T06:15:24;91940.13;;;8.89;60.83
34506;BME280;20748;42.632;23.198;2023-03-31T06:17:57;91937.72;;;8.78;60.51
34506;BME280;20748;42.632;23.198;2023-03-31T06:20:30;91926.44;;;8.83;62.17
34506;BME280;20748;42.632;23.198;2023-03-31T06:23:03;91929.91;;;8.92;61.12
34506;BME280;20748;42.632;23.198;2023-03-31T06:25:36;91930.59;;;8.98;60.91
34506;BME280;20748;42.632;23.198;2023-03-31T06:28:22;91933.78;;;9.09;61.27
34506;BME280;20748;42.632;23.198;2023-03-31T06:30:59;91936.38;;;9.09;61.72
34506;BME280;20748;42.632;23.198;2023-03-31T06:33:32;91934.16;;;9.02;60.73
34506;BME280;20748;42.632;23.198;2023-03-31T06:36:06;91936.69;;;9.07;61.63
34506;BME280;20748;42.632;23.198;2023-03-31T06:38:39;91936.56;;;9.12;61.13
34506;BME280;20748;42.632;23.198;2023-03-31T06:41:13;91923.66;;;9.07;60.76
34506;BME280;20748;42.632;23.198;2023-03-31T06:43:46;91939.06;;;9.18;59.95
34506;BME280;20748;42.632;23.198;2023-03-31T06:46:18;91943.03;;;9.15;60.66
34506;BME280;20748;42.632;23.198;2023-03-31T06:48:51;91939.56;;;9.20;60.78
34506;BME280;20748;42.632;23.198;2023-03-31T06:51:23;91943.00;;;9.43;60.47
34506;BME280;20748;42.632;23.198;2023-03-31T06:53:56;91936.53;;;9.54;60.49
34506;BME280;20748;42.632;23.198;2023-03-31T06:56:28;91944.44;;;9.35;61.37
34506;BME280;20748;42.632;23.198;2023-03-31T06:59:01;91936.72;;;9.44;61.32
34506;BME280;20748;42.632;23.198;2023-03-31T07:01:33;91938.97;;;9.23;61.06
34506;BME280;20748;42.632;23.198;2023-03-31T07:04:08;91932.31;;;9.31;60.76
34506;BME280;20748;42.632;23.198;2023-03-31T07:06:40;91925.56;;;9.30;61.35
34506;BME280;20748;42.632;23.198;2023-03-31T07:09:13;91922.16;;;9.43;62.19
34506;BME280;20748;42.632;23.198;2023-03-31T07:11:46;91920.91;;;9.54;61.81
34506;BME280;20748;42.632;23.198;2023-03-31T07:14:18;91915.84;;;9.72;61.93
34506;BME280;20748;42.632;23.198;2023-03-31T07:16:51;91918.50;;;9.81;61.20
34506;BME280;20748;42.632;23.198;2023-03-31T07:19:24;91901.53;;;10.06;60.66
34506;BME280;20748;42.632;23.198;2023-03-31T07:21:56;91902.88;;;10.27;60.00
34506;BME280;20748;42.632;23.198;2023-03-31T07:24:29;91888.66;;;10.33;59.88
34506;BME280;20748;42.632;23.198;2023-03-31T07:27:01;91896.53;;;10.42;58.96
34506;BME280;20748;42.632;23.198;2023-03-31T07:29:34;91893.38;;;10.54;58.93
34506;BME280;20748;42.632;23.198;2023-03-31T07:32:06;91893.88;;;10.56;59.51
34506;BME280;20748;42.632;23.198;2023-03-31T07:34:39;91897.69;;;10.50;59.60
34506;BME280;20748;42.632;23.198;2023-03-31T07:37:12;91883.13;;;10.57;59.75
34506;BME280;20748;42.632;23.198;2023-03-31T07:39:45;91882.22;;;10.62;59.67
34506;BME280;20748;42.632;23.198;2023-03-31T07:42:17;91886.91;;;10.51;59.86
34506;BME280;20748;42.632;23.198;2023-03-31T07:44:50;91877.63;;;10.36;60.07
34506;BME280;20748;42.632;23.198;2023-03-31T07:47:22;91876.50;;;10.51;61.29
34506;BME280;20748;42.632;23.198;2023-03-31T07:49:54;91866.31;;;10.81;59.88
34506;BME280;20748;42.632;23.198;2023-03-31T07:52:27;91880.66;;;11.01;59.20
34506;BME280;20748;42.632;23.198;2023-03-31T07:55:00;91878.84;;;11.11;58.51
34506;BME280;20748;42.632;23.198;2023-03-31T07:57:32;91895.78;;;11.22;57.84
34506;BME280;20748;42.632;23.198;2023-03-31T08:00:08;91893.63;;;11.24;56.96
34506;BME280;20748;42.632;23.198;2023-03-31T08:02:45;91879.50;;;11.25;57.56
34506;BME280;20748;42.632;23.198;2023-03-31T08:05:19;91879.69;;;11.47;57.54
34506;BME280;20748;42.632;23.198;2023-03-31T08:07:51;91872.94;;;11.54;56.78
34506;BME280;20748;42.632;23.198;2023-03-31T08:10:26;91877.69;;;11.44;56.44
34506;BME280;20748;42.632;23.198;2023-03-31T08:12:58;91874.75;;;11.36;55.31
34506;BME280;20748;42.632;23.198;2023-03-31T08:15:31;91875.06;;;11.44;55.00
34506;BME280;20748;42.632;23.198;2023-03-31T08:18:04;91863.53;;;11.27;55.65
34506;BME280;20748;42.632;23.198;2023-03-31T08:20:36;91876.41;;;11.14;56.77
34506;BME280;20748;42.632;23.198;2023-03-31T08:23:10;91867.97;;;11.09;57.01
34506;BME280;20748;42.632;23.198;2023-03-31T08:25:43;91864.41;;;11.05;57.11
34506;BME280;20748;42.632;23.198;2023-03-31T08:28:16;91850.13;;;11.11;56.66
34506;BME280;20748;42.632;23.198;2023-03-31T08:30:49;91850.00;;;11.25;57.09
34506;BME280;20748;42.632;23.198;2023-03-31T08:33:21;91859.66;;;11.07;56.76
34506;BME280;20748;42.632;23.198;2023-03-31T08:35:53;91849.56;;;11.23;56.63
34506;BME280;20748;42.632;23.198;2023-03-31T08:38:26;91837.56;;;11.22;55.55
34506;BME280;20748;42.632;23.198;2023-03-31T08:41:00;91846.31;;;11.26;55.01
34506;BME280;20748;42.632;23.198;2023-03-31T08:43:37;91852.34;;;11.35;55.81
34506;BME280;20748;42.632;23.198;2023-03-31T08:46:14;91836.97;;;11.51;55.79
34506;BME280;20748;42.632;23.198;2023-03-31T08:48:51;91838.06;;;11.77;55.64
34506;BME280;20748;42.632;23.198;2023-03-31T08:51:27;91835.09;;;11.96;53.12
34506;BME280;20748;42.632;23.198;2023-03-31T08:54:02;91811.28;;;11.80;52.25
34506;BME280;20748;42.632;23.198;2023-03-31T08:56:39;91830.19;;;12.03;52.49
34506;BME280;20748;42.632;23.198;2023-03-31T08:59:21;91828.19;;;11.74;53.00
34506;BME280;20748;42.632;23.198;2023-03-31T09:02:04;91833.56;;;11.95;53.52
34506;BME280;20748;42.632;23.198;2023-03-31T09:05:13;91820.28;;;12.35;53.10
34506;BME280;20748;42.632;23.198;2023-03-31T09:07:56;91824.69;;;12.44;50.41
34506;BME280;20748;42.632;23.198;2023-03-31T09:10:38;91833.22;;;12.71;52.82
34506;BME280;20748;42.632;23.198;2023-03-31T09:16:23;91833.47;;;13.38;49.71
34506;BME280;20748;42.632;23.198;2023-03-31T09:19:00;91824.66;;;13.43;49.42
34506;BME280;20748;42.632;23.198;2023-03-31T09:21:34;91822.47;;;13.45;48.33
34506;BME280;20748;42.632;23.198;2023-03-31T09:24:14;91824.03;;;13.67;47.44
34506;BME280;20748;42.632;23.198;2023-03-31T09:26:51;91817.66;;;13.77;47.78
34506;BME280;20748;42.632;23.198;2023-03-31T09:29:36;91814.69;;;13.58;46.88
34506;BME280;20748;42.632;23.198;2023-03-31T09:32:16;91816.28;;;13.28;47.32
34506;BME280;20748;42.632;23.198;2023-03-31T09:34:51;91816.28;;;13.28;47.95
34506;BME280;20748;42.632;23.198;2023-03-31T09:37:27;91824.38;;;13.14;47.26
34506;BME280;20748;42.632;23.198;2023-03-31T09:40:02;91816.28;;;13.50;47.65
34506;BME280;20748;42.632;23.198;2023-03-31T09:42:38;91824.19;;;13.20;47.60
34506;BME280;20748;42.632;23.198;2023-03-31T09:45:14;91811.31;;;13.06;47.89
34506;BME280;20748;42.632;23.198;2023-03-31T09:47:51;91814.84;;;13.10;48.26
34506;BME280;20748;42.632;23.198;2023-03-31T09:50:25;91802.06;;;13.08;47.78
34506;BME280;20748;42.632;23.198;2023-03-31T09:52:59;91797.16;;;13.07;47.69
34506;BME280;20748;42.632;23.198;2023-03-31T09:55:40;91800.28;;;13.00;48.29
34506;BME280;20748;42.632;23.198;2023-03-31T09:58:15;91797.09;;;12.94;49.01
34506;BME280;20748;42.632;23.198;2023-03-31T10:00:58;91794.66;;;12.89;49.32
34506;BME280;20748;42.632;23.198;2023-03-31T10:03:44;91796.34;;;12.85;48.42
34506;BME280;20748;42.632;23.198;2023-03-31T10:06:20;91788.28;;;13.20;49.41
34506;BME280;20748;42.632;23.198;2023-03-31T10:08:54;91790.00;;;13.37;48.73
34506;BME280;20748;42.632;23.198;2023-03-31T10:11:27;91782.88;;;13.47;47.52
34506;BME280;20748;42.632;23.198;2023-03-31T10:14:02;91787.81;;;13.48;46.60
34506;BME280;20748;42.632;23.198;2023-03-31T10:16:44;91777.50;;;13.64;46.50
34506;BME280;20748;42.632;23.198;2023-03-31T10:19:21;91772.09;;;13.82;47.73
34506;BME280;20748;42.632;23.198;2023-03-31T10:21:57;91771.53;;;14.10;46.42
34506;BME280;20748;42.632;23.198;2023-03-31T10:24:36;91773.59;;;13.71;46.45
34506;BME280;20748;42.632;23.198;2023-03-31T10:27:13;91772.13;;;13.39;46.12
34506;BME280;20748;42.632;23.198;2023-03-31T10:29:52;91767.66;;;13.19;46.48
34506;BME280;20748;42.632;23.198;2023-03-31T10:32:27;91766.84;;;13.27;46.78
34506;BME280;20748;42.632;23.198;2023-03-31T10:35:05;91763.44;;;13.48;47.26
34506;BME280;20748;42.632;23.198;2023-03-31T10:37:38;91757.03;;;13.58;46.97
34506;BME280;20748;42.632;23.198;2023-03-31T10:40:14;91761.19;;;13.80;45.96
34506;BME280;20748;42.632;23.198;2023-03-31T10:43:00;91740.81;;;13.64;45.46
34506;BME280;20748;42.632;23.198;2023-03-31T10:45:36;91753.44;;;13.83;46.21
34506;BME280;20748;42.632;23.198;2023-03-31T10:48:17;91749.53;;;14.02;45.66
34506;BME280;20748;42.632;23.198;2023-03-31T10:50:51;91733.81;;;14.27;45.38
34506;BME280;20748;42.632;23.198;2023-03-31T10:53:23;91736.00;;;14.25;44.08
34506;BME280;20748;42.632;23.198;2023-03-31T10:56:03;91738.66;;;14.38;43.97
34506;BME280;20748;42.632;23.198;2023-03-31T10:59:02;91732.84;;;14.57;44.65
34506;BME280;20748;42.632;23.198;2023-03-31T11:01:53;91741.38;;;14.54;44.28
34506;BME280;20748;42.632;23.198;2023-03-31T11:04:51;91733.81;;;14.52;43.75
34506;BME280;20748;42.632;23.198;2023-03-31T11:07:48;91731.06;;;14.11;43.98
34506;BME280;20748;42.632;23.198;2023-03-31T11:13:24;91729.19;;;13.99;44.30
34506;BME280;20748;42.632;23.198;2023-03-31T11:16:01;91727.22;;;13.83;45.28
34506;BME280;20748;42.632;23.198;2023-03-31T11:18:52;91712.00;;;13.77;45.09
34506;BME280;20748;42.632;23.198;2023-03-31T11:21:34;91705.75;;;13.69;45.61
34506;BME280;20748;42.632;23.198;2023-03-31T11:24:17;91704.66;;;13.82;45.71
34506;BME280;20748;42.632;23.198;2023-03-31T11:27:00;91693.34;;;14.03;45.59
34506;BME280;20748;42.632;23.198;2023-03-31T11:29:35;91688.44;;;14.27;45.99
34506;BME280;20748;42.632;23.198;2023-03-31T11:32:41;91685.72;;;14.23;44.20
34506;BME280;20748;42.632;23.198;2023-03-31T11:35:35;91688.00;;;14.49;44.90
34506;BME280;20748;42.632;23.198;2023-03-31T11:38:30;91678.13;;;14.71;43.26
34506;BME280;20748;42.632;23.198;2023-03-31T11:41:09;91678.00;;;14.93;44.33
34506;BME280;20748;42.632;23.198;2023-03-31T11:43:47;91668.94;;;14.90;44.20
34506;BME280;20748;42.632;23.198;2023-03-31T11:46:24;91672.63;;;15.01;43.69
34506;BME280;20748;42.632;23.198;2023-03-31T11:49:00;91670.72;;;15.14;42.84
34506;BME280;20748;42.632;23.198;2023-03-31T11:51:41;91657.28;;;15.32;41.90
34506;BME280;20748;42.632;23.198;2023-03-31T11:54:17;91658.94;;;15.53;41.39
34506;BME280;20748;42.632;23.198;2023-03-31T11:56:52;91659.44;;;15.42;42.15
34506;BME280;20748;42.632;23.198;2023-03-31T11:59:27;91648.25;;;15.46;41.69
34506;BME280;20748;42.632;23.198;2023-03-31T12:02:09;91642.25;;;15.61;41.16
34506;BME280;20748;42.632;23.198;2023-03-31T12:04:49;91642.16;;;15.57;41.27
34506;BME280;20748;42.632;23.198;2023-03-31T12:07:28;91635.53;;;15.48;41.69
34506;BME280;20748;42.632;23.198;2023-03-31T12:10:07;91628.59;;;15.71;41.11
34506;BME280;20748;42.632;23.198;2023-03-31T12:12:46;91625.97;;;15.71;41.33
34506;BME280;20748;42.632;23.198;2023-03-31T12:15:22;91626.72;;;15.88;41.18
34506;BME280;20748;42.632;23.198;2023-03-31T12:17:59;91627.53;;;16.05;41.04
34506;BME280;20748;42.632;23.198;2023-03-31T12:20:38;91622.59;;;16.19;40.50
34506;BME280;20748;42.632;23.198;2023-03-31T12:23:14;91619.84;;;16.32;40.83
34506;BME280;20748;42.632;23.198;2023-03-31T12:25:51;91617.59;;;16.50;42.80
34506;BME280;20748;42.632;23.198;2023-03-31T12:28:26;91616.47;;;16.15;43.12
34506;BME280;20748;42.632;23.198;2023-03-31T12:31:04;91614.28;;;16.01;42.70
34506;BME280;20748;42.632;23.198;2023-03-31T12:33:39;91615.16;;;16.05;43.36
34506;BME280;20748;42.632;23.198;2023-03-31T12:36:24;91610.03;;;16.13;43.63
34506;BME280;20748;42.632;23.198;2023-03-31T12:39:06;91611.16;;;16.12;44.24
34506;BME280;20748;42.632;23.198;2023-03-31T12:41:52;91594.59;;;16.11;42.95
34506;BME280;20748;42.632;23.198;2023-03-31T12:44:36;91590.97;;;16.35;44.35
34506;BME280;20748;42.632;23.198;2023-03-31T12:47:31;91591.84;;;16.59;42.79
34506;BME280;20748;42.632;23.198;2023-03-31T12:50:27;91587.06;;;16.65;43.81
34506;BME280;20748;42.632;23.198;2023-03-31T12:53:06;91577.41;;;16.92;42.34
34506;BME280;20748;42.632;23.198;2023-03-31T12:55:45;91579.31;;;17.12;42.30
34506;BME280;20748;42.632;23.198;2023-03-31T13:01:23;91554.72;;;17.97;39.82
34506;BME280;20748;42.632;23.198;2023-03-31T13:04:07;91555.31;;;18.10;40.44
34506;BME280;20748;42.632;23.198;2023-03-31T13:06:59;91539.41;;;17.83;39.92
34506;BME280;20748;42.632;23.198;2023-03-31T13:09:44;91534.38;;;18.25;39.61
34506;BME280;20748;42.632;23.198;2023-03-31T13:12:19;91531.50;;;18.37;38.00
34506;BME280;20748;42.632;23.198;2023-03-31T13:14:54;91520.75;;;18.50;39.57
34506;BME280;20748;42.632;23.198;2023-03-31T13:17:32;91508.00;;;18.94;38.15
34506;BME280;20748;42.632;23.198;2023-03-31T13:20:32;91509.56;;;19.36;37.13
34506;BME280;20748;42.632;23.198;2023-03-31T13:23:16;91496.84;;;19.53;35.85
34506;BME280;20748;42.632;23.198;2023-03-31T13:25:51;91490.75;;;19.49;34.20
34506;BME280;20748;42.632;23.198;2023-03-31T13:28:32;91488.56;;;19.58;33.75
34506;BME280;20748;42.632;23.198;2023-03-31T13:31:05;91484.50;;;19.71;33.17
34506;BME280;20748;42.632;23.198;2023-03-31T13:33:44;91481.69;;;19.98;33.45
34506;BME280;20748;42.632;23.198;2023-03-31T13:36:57;91472.97;;;19.42;33.35
34506;BME280;20748;42.632;23.198;2023-03-31T13:39:48;91465.63;;;19.73;33.42
34506;BME280;20748;42.632;23.198;2023-03-31T13:42:52;91467.56;;;19.31;33.29
34506;BME280;20748;42.632;23.198;2023-03-31T13:45:47;91460.91;;;19.44;33.43
34506;BME280;20748;42.632;23.198;2023-03-31T13:48:37;91460.78;;;19.34;33.60
34506;BME280;20748;42.632;23.198;2023-03-31T13:54:14;91455.09;;;18.52;34.45
34506;BME280;20748;42.632;23.198;2023-03-31T13:57:17;91446.81;;;18.54;34.88
34506;BME280;20748;42.632;23.198;2023-03-31T14:00:15;91437.84;;;18.28;34.69
34506;BME280;20748;42.632;23.198;2023-03-31T14:06:05;91440.06;;;17.95;35.68
34506;BME280;20748;42.632;23.198;2023-03-31T14:08:46;91438.97;;;17.69;35.58
34506;BME280;20748;42.632;23.198;2023-03-31T14:11:23;91443.44;;;17.38;36.07
34506;BME280;20748;42.632;23.198;2023-03-31T14:14:00;91438.47;;;17.60;36.60
34506;BME280;20748;42.632;23.198;2023-03-31T14:16:36;91433.63;;;17.92;36.30